Portada
METAR-TAF:

METAR-TAF

Aeroports :

Gaya, Índia

latitud: 24-44-40N, longitud: 84-57-04E, altitud: 116 m

Observació

L'informe es va fer fa 45 minuts, a les 07:00 UTC
Vent 6 kt del Nord/Nord-Est
Temperatura 33°C
Humitat 56%
Pressió 1007 hPa
Visibilitat: 6000 m
calitja

METAR: VEGY 310700Z 02006KT 6000 HZ NSC 33/23 Q1007

Hora: 13:15 (07:45 UTC)

Pronòstic

L'informe es va fer fa 2 hores i 45 minuts, a les 05:00 UTC
Pronòstic vàlid del 31 a les 06 UTC al 31 a les 15 UTC
Vent kt del Nord
Visibilitat: 4000 m
Núvols disperses a una alçada de 10000 ft
calitja
Evolucionant progressivament
l' 31 a les 09 UTC al 31 a les 11 UTC
Vent 6 kt del Est/Nord-Est
Visibilitat: 5000 m
calitja
Evolucionant progressivament
l' 31 a les 13 UTC al 31 a les 15 UTC
Vent kt del Nord
Visibilitat: 3000 m
Núvols disperses a una alçada de 2000 ft
Cel ennuvolat a una alçada de 10000 ft
calitja

TAF: VEGY 310500Z 3106/3115 00000KT 4000 HZ SCT100 BECMG 3109/3111 07006KT 5000 HZ BECMG 3113/3115 00000KT 3000 HZ SCT020 BKN100

Observacions i pronòstics meteorològics de més de 4000 aeroports (METAR i TAF).

Les estacions disponibles són els punts grocs i vermells al mapa.

Posi el ratolí al punt desitjat per veure el nom de l'estació.

Feu clic per veure les observacions i els pronòstics meteorològics.

Per canviar el mapa: feu clic els botons verds amb una creu de color negre per apropar; al botó verd amb un guió per allunyar la imatge; o en les fletxes verdes per a mapes adjacents.


METAR-TAF: